BAW659 LGKF-EGLL
Flight info
| Callsign | BAW659 |
|---|---|
| Flight time | N/A |
| Altitude | 34000 |
| Route | DCT LATAN DCT XOLTA DCT IXONA DCT ROTAR DCT MOBDO/N0447F360 DCT SOTOV DCT KPT L608 KUNOD DCT KRH DCT LIRSU DCT ARCKY DCT BUB L608 LOGAN LOGAN2H |
| Aircraft | A320/M-SDE3FGIJ1KRWXY/SB1 |
Departure
| Time | N/A |
|---|---|
| Airport | Kefallinia Airport (LGKF) |
Arrival
| Time | 2026-05-05 14:01 |
|---|---|
| Airport | London Heathrow Airport (EGLL) |
| Time | Latitude | Longitude | Altitude | Speed | Heading |
|---|---|---|---|---|---|
| 2026-05-05 12:37 | 47.50959 | 10.60759 | 35856 ft | 453 kts | 320° |
| 2026-05-05 12:37 | 47.53505 | 10.57998 | 35858 ft | 453 kts | 320° |
| 2026-05-05 12:37 | 47.58573 | 10.52443 | 35861 ft | 454 kts | 319° |
| 2026-05-05 12:38 | 47.63655 | 10.46877 | 35859 ft | 455 kts | 320° |
| 2026-05-05 12:38 | 47.68761 | 10.41326 | 35861 ft | 456 kts | 320° |
| 2026-05-05 12:39 | 47.73726 | 10.35924 | 35859 ft | 456 kts | 320° |
| 2026-05-05 12:39 | 47.78743 | 10.30165 | 35868 ft | 456 kts | 317° |
| 2026-05-05 12:40 | 47.83612 | 10.24126 | 35865 ft | 456 kts | 316° |
| 2026-05-05 12:40 | 47.88471 | 10.18055 | 35871 ft | 457 kts | 316° |
| 2026-05-05 12:41 | 47.93375 | 10.12021 | 35870 ft | 457 kts | 316° |
| 2026-05-05 12:41 | 47.98299 | 10.05999 | 35871 ft | 458 kts | 317° |
| 2026-05-05 12:42 | 48.03224 | 9.99950 | 35877 ft | 459 kts | 316° |
| 2026-05-05 12:42 | 48.08144 | 9.93873 | 35875 ft | 459 kts | 316° |
| 2026-05-05 12:43 | 48.13068 | 9.87785 | 35873 ft | 459 kts | 316° |
| 2026-05-05 12:43 | 48.17998 | 9.81678 | 35878 ft | 460 kts | 316° |
| 2026-05-05 12:44 | 48.22921 | 9.75555 | 35881 ft | 460 kts | 316° |
| 2026-05-05 12:44 | 48.27846 | 9.69406 | 35881 ft | 461 kts | 316° |
| 2026-05-05 12:45 | 48.32770 | 9.63239 | 35882 ft | 461 kts | 316° |
| 2026-05-05 12:45 | 48.37323 | 9.56527 | 35883 ft | 458 kts | 310° |
| 2026-05-05 12:46 | 48.41750 | 9.49641 | 35879 ft | 458 kts | 310° |
| 2026-05-05 12:46 | 48.46181 | 9.42725 | 35881 ft | 459 kts | 310° |
| 2026-05-05 12:47 | 48.50636 | 9.35757 | 35874 ft | 459 kts | 310° |
| 2026-05-05 12:47 | 48.55067 | 9.28815 | 35879 ft | 459 kts | 310° |
| 2026-05-05 12:48 | 48.59499 | 9.21851 | 35877 ft | 460 kts | 310° |
| 2026-05-05 12:48 | 48.63929 | 9.14872 | 35881 ft | 461 kts | 310° |
| 2026-05-05 12:49 | 48.68363 | 9.07863 | 35879 ft | 461 kts | 310° |
| 2026-05-05 12:49 | 48.72785 | 9.00850 | 35876 ft | 461 kts | 310° |
| 2026-05-05 12:50 | 48.77215 | 8.93810 | 35873 ft | 461 kts | 310° |
| 2026-05-05 12:50 | 48.81645 | 8.86762 | 35876 ft | 462 kts | 310° |
| 2026-05-05 12:51 | 48.86076 | 8.79693 | 35877 ft | 462 kts | 309° |
| 2026-05-05 12:51 | 48.90497 | 8.72598 | 35875 ft | 462 kts | 309° |
| 2026-05-05 12:52 | 48.94910 | 8.65489 | 35876 ft | 463 kts | 309° |
| 2026-05-05 12:52 | 48.99334 | 8.58355 | 35878 ft | 463 kts | 309° |
| 2026-05-05 12:53 | 49.03662 | 8.51111 | 35873 ft | 462 kts | 307° |
| 2026-05-05 12:53 | 49.07888 | 8.43729 | 35871 ft | 462 kts | 307° |
| 2026-05-05 12:54 | 49.14270 | 8.32599 | 35872 ft | 463 kts | 307° |
| 2026-05-05 12:55 | 49.18543 | 8.25219 | 35875 ft | 463 kts | 307° |
| 2026-05-05 12:55 | 49.22086 | 8.19074 | 35877 ft | 464 kts | 307° |
| 2026-05-05 12:56 | 49.26349 | 8.11652 | 35877 ft | 464 kts | 307° |
| 2026-05-05 12:56 | 49.30604 | 8.04214 | 35875 ft | 464 kts | 307° |
| 2026-05-05 12:57 | 49.34853 | 7.96752 | 35872 ft | 465 kts | 307° |
| 2026-05-05 12:57 | 49.39110 | 7.89280 | 35872 ft | 465 kts | 307° |
| 2026-05-05 12:58 | 49.43359 | 7.81793 | 35867 ft | 465 kts | 307° |
| 2026-05-05 12:58 | 49.47602 | 7.74288 | 35866 ft | 465 kts | 307° |
| 2026-05-05 12:59 | 49.51851 | 7.66757 | 35870 ft | 466 kts | 307° |
| 2026-05-05 12:59 | 49.56090 | 7.59218 | 35868 ft | 466 kts | 307° |
| 2026-05-05 13:00 | 49.62469 | 7.47834 | 35873 ft | 466 kts | 307° |
| 2026-05-05 13:01 | 49.70925 | 7.32686 | 35877 ft | 466 kts | 306° |
| 2026-05-05 13:01 | 49.75138 | 7.25090 | 35876 ft | 465 kts | 306° |
| 2026-05-05 13:02 | 49.79340 | 7.17484 | 35874 ft | 465 kts | 306° |
| 2026-05-05 13:02 | 49.83548 | 7.09863 | 35881 ft | 465 kts | 306° |
| 2026-05-05 13:03 | 49.87752 | 7.02239 | 35869 ft | 465 kts | 306° |
| 2026-05-05 13:03 | 49.91934 | 6.94603 | 35861 ft | 465 kts | 306° |
| 2026-05-05 13:04 | 49.96113 | 6.86956 | 35858 ft | 464 kts | 306° |
| 2026-05-05 13:04 | 50.00294 | 6.79302 | 35866 ft | 464 kts | 306° |
| 2026-05-05 13:05 | 50.04459 | 6.71649 | 35863 ft | 463 kts | 306° |
| 2026-05-05 13:05 | 50.08612 | 6.63984 | 35861 ft | 463 kts | 306° |
| 2026-05-05 13:06 | 50.12761 | 6.56310 | 35860 ft | 462 kts | 306° |
| 2026-05-05 13:06 | 50.16897 | 6.48637 | 35860 ft | 462 kts | 306° |
| 2026-05-05 13:07 | 50.20436 | 6.40331 | 35859 ft | 454 kts | 294° |
| 2026-05-05 13:07 | 50.23466 | 6.31688 | 35858 ft | 454 kts | 294° |
| 2026-05-05 13:08 | 50.26506 | 6.23041 | 35868 ft | 454 kts | 294° |
| 2026-05-05 13:08 | 50.29520 | 6.14373 | 35873 ft | 453 kts | 294° |
| 2026-05-05 13:09 | 50.32662 | 6.05798 | 35873 ft | 455 kts | 297° |
| 2026-05-05 13:09 | 50.36009 | 5.97384 | 35880 ft | 455 kts | 298° |
| 2026-05-05 13:10 | 50.39355 | 5.88979 | 35885 ft | 454 kts | 297° |
| 2026-05-05 13:10 | 50.42633 | 5.80522 | 35894 ft | 453 kts | 297° |
| 2026-05-05 13:11 | 50.45869 | 5.72048 | 35904 ft | 453 kts | 297° |
| 2026-05-05 13:11 | 50.49106 | 5.63573 | 35909 ft | 452 kts | 297° |
| 2026-05-05 13:12 | 50.52341 | 5.55110 | 35908 ft | 452 kts | 297° |
| 2026-05-05 13:12 | 50.55572 | 5.46635 | 35912 ft | 452 kts | 297° |
| 2026-05-05 13:13 | 50.58792 | 5.38156 | 35916 ft | 452 kts | 297° |
| 2026-05-05 13:13 | 50.62007 | 5.29648 | 35905 ft | 452 kts | 297° |
| 2026-05-05 13:14 | 50.65238 | 5.21074 | 35907 ft | 452 kts | 297° |
| 2026-05-05 13:14 | 50.68445 | 5.12546 | 35911 ft | 452 kts | 297° |
| 2026-05-05 13:15 | 50.71652 | 5.04002 | 35917 ft | 453 kts | 297° |
| 2026-05-05 13:15 | 50.74853 | 4.95447 | 35920 ft | 452 kts | 296° |
| 2026-05-05 13:16 | 50.78038 | 4.86872 | 35921 ft | 452 kts | 296° |
| 2026-05-05 13:16 | 50.81213 | 4.78298 | 35936 ft | 452 kts | 296° |
| 2026-05-05 13:17 | 50.84389 | 4.69716 | 35932 ft | 452 kts | 296° |
| 2026-05-05 13:17 | 50.87551 | 4.61127 | 35936 ft | 451 kts | 296° |
| 2026-05-05 13:18 | 50.90704 | 4.52532 | 35936 ft | 451 kts | 297° |
| 2026-05-05 13:18 | 50.93946 | 4.44000 | 35941 ft | 452 kts | 298° |
| 2026-05-05 13:19 | 50.97246 | 4.35516 | 35940 ft | 452 kts | 298° |
| 2026-05-05 13:19 | 51.00527 | 4.27019 | 35937 ft | 452 kts | 297° |
| 2026-05-05 13:20 | 51.03782 | 4.18481 | 35935 ft | 452 kts | 297° |
| 2026-05-05 13:20 | 51.07015 | 4.09934 | 35933 ft | 451 kts | 297° |
| 2026-05-05 13:21 | 51.10247 | 4.01368 | 35928 ft | 452 kts | 297° |
| 2026-05-05 13:21 | 51.13510 | 3.92747 | 35927 ft | 451 kts | 297° |
| 2026-05-05 13:22 | 51.16735 | 3.84173 | 35925 ft | 451 kts | 297° |
| 2026-05-05 13:22 | 51.19955 | 3.75580 | 35926 ft | 451 kts | 297° |
| 2026-05-05 13:23 | 51.23167 | 3.66996 | 35931 ft | 451 kts | 297° |
| 2026-05-05 13:23 | 51.26367 | 3.58399 | 35938 ft | 450 kts | 297° |
| 2026-05-05 13:24 | 51.29553 | 3.49787 | 35941 ft | 450 kts | 297° |
| 2026-05-05 13:24 | 51.32737 | 3.41179 | 35946 ft | 450 kts | 297° |
| 2026-05-05 13:25 | 51.35588 | 3.32331 | 35958 ft | 445 kts | 288° |
| 2026-05-05 13:25 | 51.37773 | 3.23076 | 35959 ft | 445 kts | 288° |
| 2026-05-05 13:26 | 51.39957 | 3.13809 | 35964 ft | 444 kts | 288° |
| 2026-05-05 13:26 | 51.42140 | 3.04550 | 35966 ft | 444 kts | 288° |
| 2026-05-05 13:27 | 51.44317 | 2.95298 | 35958 ft | 444 kts | 288° |
| 2026-05-05 13:27 | 51.46481 | 2.86043 | 35960 ft | 443 kts | 288° |
| 2026-05-05 13:28 | 51.48635 | 2.76784 | 35968 ft | 443 kts | 288° |
| 2026-05-05 13:28 | 51.50776 | 2.67532 | 35972 ft | 442 kts | 288° |
| 2026-05-05 13:29 | 51.52141 | 2.61612 | 35978 ft | 442 kts | 288° |
| 2026-05-05 13:29 | 51.52453 | 2.60265 | 35976 ft | 442 kts | 288° |
| 2026-05-05 13:30 | 51.54587 | 2.51016 | 35740 ft | 441 kts | 288° |
| 2026-05-05 13:30 | 51.55643 | 2.46402 | 35487 ft | 440 kts | 288° |
| 2026-05-05 13:30 | 51.56694 | 2.41779 | 35244 ft | 440 kts | 288° |
| 2026-05-05 13:31 | 51.57741 | 2.37164 | 34982 ft | 440 kts | 287° |
| 2026-05-05 13:31 | 51.58792 | 2.32525 | 34240 ft | 444 kts | 287° |
| 2026-05-05 13:31 | 51.59856 | 2.27837 | 33347 ft | 449 kts | 287° |
| 2026-05-05 13:31 | 51.60934 | 2.23101 | 32477 ft | 452 kts | 288° |
| 2026-05-05 13:32 | 51.62019 | 2.18338 | 31645 ft | 455 kts | 288° |
| 2026-05-05 13:32 | 51.63098 | 2.13593 | 31186 ft | 449 kts | 288° |
| 2026-05-05 13:32 | 51.64162 | 2.08895 | 30621 ft | 445 kts | 288° |
| 2026-05-05 13:32 | 51.65217 | 2.04219 | 30072 ft | 442 kts | 287° |
| 2026-05-05 13:33 | 51.66245 | 1.99579 | 29380 ft | 439 kts | 285° |
| 2026-05-05 13:33 | 51.66825 | 1.94746 | 28100 ft | 444 kts | 272° |
| 2026-05-05 13:33 | 51.66999 | 1.89747 | 27144 ft | 447 kts | 271° |
| 2026-05-05 13:33 | 51.67154 | 1.84782 | 26620 ft | 440 kts | 271° |
| 2026-05-05 13:34 | 51.67301 | 1.79879 | 26021 ft | 436 kts | 271° |
| 2026-05-05 13:34 | 51.67443 | 1.75026 | 25408 ft | 433 kts | 271° |
| 2026-05-05 13:34 | 51.67584 | 1.70196 | 24795 ft | 430 kts | 271° |
| 2026-05-05 13:34 | 51.67722 | 1.65407 | 24183 ft | 427 kts | 271° |
| 2026-05-05 13:35 | 51.67861 | 1.60629 | 23574 ft | 425 kts | 271° |
| 2026-05-05 13:35 | 51.68016 | 1.55888 | 22875 ft | 423 kts | 272° |
| 2026-05-05 13:35 | 51.68201 | 1.51181 | 22303 ft | 418 kts | 272° |
| 2026-05-05 13:35 | 51.68399 | 1.46542 | 21808 ft | 412 kts | 272° |
| 2026-05-05 13:36 | 51.68601 | 1.41913 | 21338 ft | 406 kts | 272° |
| 2026-05-05 13:36 | 51.68792 | 1.37458 | 20882 ft | 401 kts | 272° |
| 2026-05-05 13:36 | 51.68978 | 1.32930 | 20388 ft | 398 kts | 272° |
| 2026-05-05 13:36 | 51.69153 | 1.28508 | 19913 ft | 394 kts | 272° |
| 2026-05-05 13:37 | 51.69322 | 1.24111 | 19416 ft | 391 kts | 272° |
| 2026-05-05 13:37 | 51.69483 | 1.19760 | 18924 ft | 388 kts | 273° |
| 2026-05-05 13:37 | 51.69644 | 1.15426 | 18421 ft | 386 kts | 273° |
| 2026-05-05 13:37 | 51.69804 | 1.11132 | 17883 ft | 383 kts | 273° |
| 2026-05-05 13:38 | 51.69961 | 1.06861 | 17372 ft | 379 kts | 273° |
| 2026-05-05 13:38 | 51.70112 | 1.02648 | 16877 ft | 375 kts | 273° |
| 2026-05-05 13:38 | 51.70260 | 0.98478 | 16378 ft | 371 kts | 273° |
| 2026-05-05 13:38 | 51.70322 | 0.94356 | 16018 ft | 363 kts | 266° |
| 2026-05-05 13:39 | 51.70061 | 0.90354 | 15961 ft | 358 kts | 263° |
| 2026-05-05 13:39 | 51.69780 | 0.86365 | 15974 ft | 358 kts | 263° |
| 2026-05-05 13:39 | 51.69500 | 0.82370 | 15466 ft | 361 kts | 263° |
| 2026-05-05 13:39 | 51.69215 | 0.78291 | 14594 ft | 370 kts | 263° |
| 2026-05-05 13:40 | 51.68924 | 0.74165 | 14040 ft | 369 kts | 263° |
| 2026-05-05 13:40 | 51.68632 | 0.70052 | 13160 ft | 374 kts | 263° |
| 2026-05-05 13:40 | 51.68332 | 0.65832 | 12299 ft | 379 kts | 264° |
| 2026-05-05 13:40 | 51.68035 | 0.61661 | 11790 ft | 372 kts | 264° |
| 2026-05-05 13:41 | 51.67738 | 0.57548 | 11291 ft | 367 kts | 264° |
| 2026-05-05 13:41 | 51.67444 | 0.53502 | 10781 ft | 361 kts | 264° |
| 2026-05-05 13:41 | 51.67153 | 0.49514 | 10301 ft | 356 kts | 264° |
| 2026-05-05 13:41 | 51.66867 | 0.45581 | 9814 ft | 352 kts | 264° |
| 2026-05-05 13:42 | 51.66584 | 0.41689 | 9302 ft | 347 kts | 264° |
| 2026-05-05 13:42 | 51.66306 | 0.37908 | 9143 ft | 334 kts | 264° |
| 2026-05-05 13:42 | 51.66035 | 0.34268 | 8988 ft | 322 kts | 264° |
| 2026-05-05 13:42 | 51.65772 | 0.30764 | 8958 ft | 307 kts | 264° |
| 2026-05-05 13:43 | 51.65525 | 0.27438 | 8965 ft | 292 kts | 264° |
| 2026-05-05 13:43 | 51.65286 | 0.24234 | 8968 ft | 287 kts | 264° |
| 2026-05-05 13:43 | 51.65046 | 0.21048 | 8973 ft | 286 kts | 264° |
| 2026-05-05 13:43 | 51.64823 | 0.17827 | 8971 ft | 286 kts | 265° |
| 2026-05-05 13:44 | 51.64665 | 0.14675 | 8970 ft | 286 kts | 266° |
| 2026-05-05 13:44 | 51.64513 | 0.11443 | 8971 ft | 286 kts | 266° |
| 2026-05-05 13:44 | 51.64362 | 0.08251 | 8973 ft | 286 kts | 266° |
| 2026-05-05 13:44 | 51.64212 | 0.05053 | 8972 ft | 286 kts | 266° |
| 2026-05-05 13:45 | 51.64062 | 0.01863 | 8973 ft | 286 kts | 266° |
| 2026-05-05 13:45 | 51.63910 | -0.01325 | 8971 ft | 286 kts | 266° |
| 2026-05-05 13:45 | 51.63758 | -0.04523 | 8970 ft | 286 kts | 266° |
| 2026-05-05 13:45 | 51.63607 | -0.07711 | 8995 ft | 286 kts | 266° |
| 2026-05-05 13:46 | 51.63454 | -0.10901 | 8997 ft | 286 kts | 266° |
| 2026-05-05 13:46 | 51.63303 | -0.14082 | 8980 ft | 286 kts | 266° |
| 2026-05-05 13:46 | 51.63151 | -0.17281 | 8841 ft | 285 kts | 266° |
| 2026-05-05 13:46 | 51.62998 | -0.20459 | 8712 ft | 285 kts | 266° |
| 2026-05-05 13:47 | 51.62845 | -0.23630 | 8578 ft | 284 kts | 266° |
| 2026-05-05 13:47 | 51.62690 | -0.26797 | 8451 ft | 283 kts | 266° |
| 2026-05-05 13:47 | 51.62535 | -0.29955 | 8323 ft | 283 kts | 266° |
| 2026-05-05 13:47 | 51.62379 | -0.33107 | 8195 ft | 282 kts | 266° |
| 2026-05-05 13:48 | 51.62224 | -0.36254 | 8038 ft | 282 kts | 266° |
| 2026-05-05 13:48 | 51.62069 | -0.39349 | 7965 ft | 272 kts | 266° |
| 2026-05-05 13:48 | 51.61920 | -0.42303 | 7971 ft | 258 kts | 266° |
| 2026-05-05 13:48 | 51.61776 | -0.45122 | 7974 ft | 250 kts | 266° |
| 2026-05-05 13:49 | 51.61632 | -0.47902 | 7974 ft | 249 kts | 266° |
| 2026-05-05 13:49 | 51.61488 | -0.50668 | 7973 ft | 249 kts | 266° |
| 2026-05-05 13:49 | 51.61343 | -0.53450 | 7971 ft | 249 kts | 266° |
| 2026-05-05 13:49 | 51.61245 | -0.55321 | 7900 ft | 248 kts | 266° |
| 2026-05-05 13:50 | 51.61199 | -0.56218 | 7817 ft | 248 kts | 266° |
| 2026-05-05 13:51 | 51.60068 | -0.76563 | 5826 ft | 242 kts | 266° |
| 2026-05-05 13:52 | 51.59914 | -0.78643 | 5609 ft | 240 kts | 265° |
| 2026-05-05 13:53 | 51.59744 | -0.81318 | 5315 ft | 240 kts | 266° |
| 2026-05-05 13:53 | 51.59577 | -0.83990 | 5024 ft | 239 kts | 266° |
| 2026-05-05 13:53 | 51.59390 | -0.86634 | 4894 ft | 240 kts | 261° |
| 2026-05-05 13:53 | 51.58693 | -0.89036 | 4763 ft | 239 kts | 228° |
| 2026-05-05 13:54 | 51.57345 | -0.90435 | 4692 ft | 228 kts | 194° |
| 2026-05-05 13:54 | 51.55826 | -0.90783 | 4621 ft | 215 kts | 182° |
| 2026-05-05 13:54 | 51.54368 | -0.90890 | 4564 ft | 205 kts | 175° |
| 2026-05-05 13:54 | 51.53067 | -0.90178 | 4505 ft | 197 kts | 137° |
| 2026-05-05 13:55 | 51.52176 | -0.88547 | 4453 ft | 194 kts | 120° |
| 2026-05-05 13:55 | 51.51420 | -0.86745 | 4401 ft | 195 kts | 121° |
| 2026-05-05 13:55 | 51.50659 | -0.84952 | 4323 ft | 194 kts | 122° |
| 2026-05-05 13:55 | 51.49901 | -0.83166 | 4187 ft | 194 kts | 121° |
| 2026-05-05 13:56 | 51.49139 | -0.81376 | 4030 ft | 194 kts | 121° |
| 2026-05-05 13:56 | 51.48376 | -0.79593 | 3849 ft | 193 kts | 121° |
| 2026-05-05 13:56 | 51.47742 | -0.77744 | 3665 ft | 188 kts | 102° |
| 2026-05-05 13:56 | 51.47604 | -0.75700 | 3467 ft | 184 kts | 86° |
| 2026-05-05 13:57 | 51.47618 | -0.73652 | 3233 ft | 183 kts | 86° |
| 2026-05-05 13:57 | 51.47627 | -0.72300 | 3059 ft | 183 kts | 85° |
| 2026-05-05 13:57 | 51.47639 | -0.70248 | 2808 ft | 180 kts | 86° |
| 2026-05-05 13:57 | 51.47650 | -0.68273 | 2553 ft | 172 kts | 86° |
| 2026-05-05 13:58 | 51.47660 | -0.66401 | 2337 ft | 165 kts | 86° |
| 2026-05-05 13:58 | 51.47671 | -0.64574 | 2116 ft | 163 kts | 86° |
| 2026-05-05 13:58 | 51.47681 | -0.62765 | 1897 ft | 162 kts | 85° |
| 2026-05-05 13:58 | 51.47691 | -0.60965 | 1685 ft | 160 kts | 86° |
| 2026-05-05 13:59 | 51.47709 | -0.57381 | 1236 ft | 159 kts | 86° |
| 2026-05-05 13:59 | 51.47716 | -0.55672 | 1027 ft | 149 kts | 86° |
| 2026-05-05 14:00 | 51.47731 | -0.52421 | 612 ft | 143 kts | 86° |
| 2026-05-05 14:00 | 51.47738 | -0.50836 | 437 ft | 141 kts | 85° |
| 2026-05-05 14:00 | 51.47749 | -0.49253 | 242 ft | 142 kts | 88° |
| 2026-05-05 14:00 | 51.47749 | -0.47672 | 94 ft | 140 kts | 86° |
| 2026-05-05 14:01 | 51.47762 | -0.46317 | 88 ft | 98 kts | 89° |
| 2026-05-05 14:01 | 51.47759 | -0.45646 | 86 ft | 23 kts | 90° |
| 2026-05-05 14:01 | 51.47728 | -0.45486 | 88 ft | 16 kts | 143° |
| 2026-05-05 14:01 | 51.47647 | -0.45467 | 87 ft | 9 kts | 180° |
| 2026-05-05 14:02 | 51.47599 | -0.45521 | 88 ft | 10 kts | 251° |
| 2026-05-05 14:02 | 51.47596 | -0.45640 | 87 ft | 12 kts | 269° |
| 2026-05-05 14:02 | 51.47595 | -0.45783 | 89 ft | 14 kts | 269° |
| 2026-05-05 14:02 | 51.47593 | -0.45949 | 87 ft | 16 kts | 269° |
| 2026-05-05 14:03 | 51.47594 | -0.46140 | 87 ft | 18 kts | 270° |
| 2026-05-05 14:03 | 51.47595 | -0.46354 | 88 ft | 20 kts | 271° |
| 2026-05-05 14:03 | 51.47593 | -0.46588 | 87 ft | 21 kts | 269° |
| 2026-05-05 14:03 | 51.47589 | -0.46824 | 87 ft | 20 kts | 261° |
| 2026-05-05 14:04 | 51.47581 | -0.47053 | 89 ft | 17 kts | 269° |
| 2026-05-05 14:04 | 51.47580 | -0.47261 | 90 ft | 19 kts | 270° |
| 2026-05-05 14:04 | 51.47581 | -0.47482 | 90 ft | 20 kts | 269° |
| 2026-05-05 14:04 | 51.47580 | -0.47717 | 90 ft | 21 kts | 269° |
| 2026-05-05 14:05 | 51.47578 | -0.47956 | 90 ft | 22 kts | 269° |
| 2026-05-05 14:05 | 51.47578 | -0.48192 | 90 ft | 20 kts | 270° |
| 2026-05-05 14:05 | 51.47577 | -0.48400 | 87 ft | 12 kts | 269° |
| 2026-05-05 14:05 | 51.47529 | -0.48479 | 89 ft | 11 kts | 178° |
| 2026-05-05 14:06 | 51.47448 | -0.48477 | 87 ft | 12 kts | 180° |
| 2026-05-05 14:06 | 51.47366 | -0.48477 | 87 ft | 12 kts | 179° |
| 2026-05-05 14:06 | 51.47298 | -0.48476 | 87 ft | 7 kts | 179° |
| 2026-05-05 14:06 | 51.47279 | -0.48479 | 87 ft | 2 kts | 205° |
| 2026-05-05 14:07 | 51.47273 | -0.48497 | 90 ft | 2 kts | 243° |
| 2026-05-05 14:07 | 51.47271 | -0.48532 | 90 ft | 4 kts | 268° |
| 2026-05-05 14:07 | 51.47271 | -0.48570 | 88 ft | 3 kts | 269° |
| 2026-05-05 14:07 | 51.47271 | -0.48590 | 90 ft | 0 kts | 270° |
| 2026-05-05 14:08 | 51.47271 | -0.48591 | 90 ft | 0 kts | 270° |